Terminal Aerodrome Forecast
Issued by NWS

Home | Current Version | Previous Version | Text Only | Print | Product List | Glossary On
Versions: 1 2 3 4 5 6 7 8 9 10 11 12 13 14 15 16 17 18 19 20 21 22 23 24
000
FTUS46 KOTX 272339
TAFPUW
TAF
KPUW 272339Z 2800/2824 24004KT P6SM SCT150
     FM280600 24015G25KT P6SM -TSRA SCT030 OVC060CB
     FM280800 24017G30KT P6SM -TSRA SCT015 OVC030CB
     FM281000 24026G38KT P6SM -SHRA BKN018 OVC030
     FM281300 25024G35KT P6SM BKN020
     FM282000 25022G30KT P6SM BKN035=

USA.gov is the U.S. government's official web portal to all federal, state and local government web resources and services.